sensor_id;sensor_type;location;lat;lon;timestamp;noise_LAeq;noise_LA_min;noise_LA_max;noise_LA01;noise_LA95
61249;Laerm;47119;49.130;9.218;2023-05-07T00:00:23;46.31;29.11;69.19;;
61249;Laerm;47119;49.130;9.218;2023-05-07T00:02:51;55.83;30.80;79.14;;
61249;Laerm;47119;49.130;9.218;2023-05-07T00:05:20;47.17;31.22;63.99;;
61249;Laerm;47119;49.130;9.218;2023-05-07T00:07:47;43.59;29.37;59.71;;
61249;Laerm;47119;49.130;9.218;2023-05-07T00:10:15;43.76;30.06;58.74;;
61249;Laerm;47119;49.130;9.218;2023-05-07T00:12:45;47.85;30.52;63.17;;
61249;Laerm;47119;49.130;9.218;2023-05-07T00:15:12;41.63;29.90;53.38;;
61249;Laerm;47119;49.130;9.218;2023-05-07T00:17:39;46.82;29.81;62.14;;
61249;Laerm;47119;49.130;9.218;2023-05-07T00:20:28;40.55;30.73;51.02;;
61249;Laerm;47119;49.130;9.218;2023-05-07T00:22:59;42.92;29.63;60.81;;
61249;Laerm;47119;49.130;9.218;2023-05-07T00:25:27;40.76;28.97;54.06;;
61249;Laerm;47119;49.130;9.218;2023-05-07T00:28:00;48.69;30.58;68.90;;
61249;Laerm;47119;49.130;9.218;2023-05-07T00:30:29;43.94;30.36;60.12;;
61249;Laerm;47119;49.130;9.218;2023-05-07T00:32:57;44.66;29.47;61.06;;
61249;Laerm;47119;49.130;9.218;2023-05-07T00:35:34;45.77;29.34;65.42;;
61249;Laerm;47119;49.130;9.218;2023-05-07T00:38:05;39.93;29.63;54.98;;
61249;Laerm;47119;49.130;9.218;2023-05-07T00:40:36;40.08;30.26;49.97;;
61249;Laerm;47119;49.130;9.218;2023-05-07T00:43:10;40.73;29.52;52.82;;
61249;Laerm;47119;49.130;9.218;2023-05-07T00:45:41;36.02;29.07;46.57;;
61249;Laerm;47119;49.130;9.218;2023-05-07T00:48:08;44.46;30.83;61.23;;
61249;Laerm;47119;49.130;9.218;2023-05-07T00:50:39;46.77;30.51;63.39;;
61249;Laerm;47119;49.130;9.218;2023-05-07T00:53:08;40.52;30.09;54.26;;
61249;Laerm;47119;49.130;9.218;2023-05-07T00:55:36;42.48;30.73;53.77;;
61249;Laerm;47119;49.130;9.218;2023-05-07T00:58:04;43.00;30.39;57.77;;
61249;Laerm;47119;49.130;9.218;2023-05-07T01:00:33;47.72;29.95;63.53;;
61249;Laerm;47119;49.130;9.218;2023-05-07T01:03:01;42.40;28.60;58.75;;
61249;Laerm;47119;49.130;9.218;2023-05-07T01:05:29;45.22;30.18;57.94;;
61249;Laerm;47119;49.130;9.218;2023-05-07T01:07:58;40.57;29.09;53.41;;
61249;Laerm;47119;49.130;9.218;2023-05-07T01:10:28;48.49;31.70;65.71;;
61249;Laerm;47119;49.130;9.218;2023-05-07T01:12:59;46.69;31.52;62.86;;
61249;Laerm;47119;49.130;9.218;2023-05-07T01:15:27;45.43;30.40;59.01;;
61249;Laerm;47119;49.130;9.218;2023-05-07T01:17:58;38.78;29.34;49.88;;
61249;Laerm;47119;49.130;9.218;2023-05-07T01:20:34;39.29;29.59;56.63;;
61249;Laerm;47119;49.130;9.218;2023-05-07T01:23:04;44.99;29.90;64.10;;
61249;Laerm;47119;49.130;9.218;2023-05-07T01:25:33;43.18;30.04;58.50;;
61249;Laerm;47119;49.130;9.218;2023-05-07T01:28:01;42.29;29.18;54.89;;
61249;Laerm;47119;49.130;9.218;2023-05-07T01:30:34;39.40;29.45;51.44;;
61249;Laerm;47119;49.130;9.218;2023-05-07T01:33:11;43.12;29.43;56.93;;
61249;Laerm;47119;49.130;9.218;2023-05-07T01:35:45;35.36;29.40;43.66;;
61249;Laerm;47119;49.130;9.218;2023-05-07T01:38:15;45.19;29.69;63.07;;
61249;Laerm;47119;49.130;9.218;2023-05-07T01:40:43;40.56;30.00;56.41;;
61249;Laerm;47119;49.130;9.218;2023-05-07T01:43:10;37.79;29.40;47.55;;
61249;Laerm;47119;49.130;9.218;2023-05-07T01:45:39;41.91;29.28;58.30;;
61249;Laerm;47119;49.130;9.218;2023-05-07T01:48:09;43.71;29.03;57.31;;
61249;Laerm;47119;49.130;9.218;2023-05-07T01:50:40;37.12;29.00;50.42;;
61249;Laerm;47119;49.130;9.218;2023-05-07T01:53:08;37.51;29.02;50.07;;
61249;Laerm;47119;49.130;9.218;2023-05-07T01:55:39;46.60;30.20;65.90;;
61249;Laerm;47119;49.130;9.218;2023-05-07T01:58:09;41.38;29.26;53.29;;
61249;Laerm;47119;49.130;9.218;2023-05-07T02:00:39;41.29;30.33;54.15;;
61249;Laerm;47119;49.130;9.218;2023-05-07T02:03:09;37.61;28.76;53.18;;
61249;Laerm;47119;49.130;9.218;2023-05-07T02:05:50;39.41;29.37;52.43;;
61249;Laerm;47119;49.130;9.218;2023-05-07T02:08:33;38.21;29.09;49.45;;
61249;Laerm;47119;49.130;9.218;2023-05-07T02:11:04;41.80;30.79;52.35;;
61249;Laerm;47119;49.130;9.218;2023-05-07T02:13:33;48.06;32.93;63.79;;
61249;Laerm;47119;49.130;9.218;2023-05-07T02:16:01;45.18;29.91;59.45;;
61249;Laerm;47119;49.130;9.218;2023-05-07T02:18:28;44.70;29.02;66.03;;
61249;Laerm;47119;49.130;9.218;2023-05-07T02:20:58;50.24;29.07;68.89;;
61249;Laerm;47119;49.130;9.218;2023-05-07T02:23:25;45.85;31.47;60.72;;
61249;Laerm;47119;49.130;9.218;2023-05-07T02:25:52;35.45;28.87;50.26;;
61249;Laerm;47119;49.130;9.218;2023-05-07T02:28:25;38.58;30.15;50.89;;
61249;Laerm;47119;49.130;9.218;2023-05-07T02:30:57;45.84;28.71;62.58;;
61249;Laerm;47119;49.130;9.218;2023-05-07T02:33:26;52.39;28.88;79.07;;
61249;Laerm;47119;49.130;9.218;2023-05-07T02:35:55;42.17;29.58;56.70;;
61249;Laerm;47119;49.130;9.218;2023-05-07T02:38:27;42.91;32.21;60.34;;
61249;Laerm;47119;49.130;9.218;2023-05-07T02:40:54;46.55;29.56;64.78;;
61249;Laerm;47119;49.130;9.218;2023-05-07T02:43:23;50.10;29.48;70.68;;
61249;Laerm;47119;49.130;9.218;2023-05-07T02:46:02;47.14;29.40;64.60;;
61249;Laerm;47119;49.130;9.218;2023-05-07T02:48:29;43.89;32.04;57.34;;
61249;Laerm;47119;49.130;9.218;2023-05-07T02:50:59;44.55;29.79;58.80;;
61249;Laerm;47119;49.130;9.218;2023-05-07T02:53:28;40.43;29.01;58.06;;
61249;Laerm;47119;49.130;9.218;2023-05-07T02:55:56;37.14;29.23;48.26;;
61249;Laerm;47119;49.130;9.218;2023-05-07T02:58:24;40.08;29.34;48.82;;
61249;Laerm;47119;49.130;9.218;2023-05-07T03:00:52;49.14;30.57;68.52;;
61249;Laerm;47119;49.130;9.218;2023-05-07T03:03:54;38.32;29.40;54.95;;
61249;Laerm;47119;49.130;9.218;2023-05-07T03:06:25;41.05;29.50;60.83;;
61249;Laerm;47119;49.130;9.218;2023-05-07T03:08:54;37.47;29.95;47.17;;
61249;Laerm;47119;49.130;9.218;2023-05-07T03:11:24;38.19;29.12;51.10;;
61249;Laerm;47119;49.130;9.218;2023-05-07T03:13:53;36.97;29.47;53.70;;
61249;Laerm;47119;49.130;9.218;2023-05-07T03:16:23;45.37;30.53;62.07;;
61249;Laerm;47119;49.130;9.218;2023-05-07T03:18:52;42.93;29.96;58.01;;
61249;Laerm;47119;49.130;9.218;2023-05-07T03:21:21;39.53;30.71;55.04;;
61249;Laerm;47119;49.130;9.218;2023-05-07T03:23:51;41.70;29.66;54.88;;
61249;Laerm;47119;49.130;9.218;2023-05-07T03:26:18;44.73;31.98;57.19;;
61249;Laerm;47119;49.130;9.218;2023-05-07T03:28:50;41.41;32.13;51.50;;
61249;Laerm;47119;49.130;9.218;2023-05-07T03:31:20;39.85;30.44;49.13;;
61249;Laerm;47119;49.130;9.218;2023-05-07T03:33:53;40.99;30.77;60.05;;
61249;Laerm;47119;49.130;9.218;2023-05-07T03:36:21;44.03;31.06;56.52;;
61249;Laerm;47119;49.130;9.218;2023-05-07T03:38:49;44.47;32.19;59.02;;
61249;Laerm;47119;49.130;9.218;2023-05-07T03:41:19;49.26;31.41;62.94;;
61249;Laerm;47119;49.130;9.218;2023-05-07T03:43:46;51.62;31.33;65.50;;
61249;Laerm;47119;49.130;9.218;2023-05-07T03:46:13;51.37;32.18;65.56;;
61249;Laerm;47119;49.130;9.218;2023-05-07T03:48:43;47.87;30.66;65.30;;
61249;Laerm;47119;49.130;9.218;2023-05-07T03:51:13;42.56;29.49;54.46;;
61249;Laerm;47119;49.130;9.218;2023-05-07T03:53:42;47.49;31.10;63.86;;
61249;Laerm;47119;49.130;9.218;2023-05-07T03:56:14;44.75;30.29;66.66;;
61249;Laerm;47119;49.130;9.218;2023-05-07T03:58:43;45.04;31.62;59.09;;
61249;Laerm;47119;49.130;9.218;2023-05-07T04:01:13;44.71;30.98;54.05;;
61249;Laerm;47119;49.130;9.218;2023-05-07T04:03:40;44.84;32.40;61.10;;
61249;Laerm;47119;49.130;9.218;2023-05-07T04:06:09;49.08;31.69;67.44;;
61249;Laerm;47119;49.130;9.218;2023-05-07T04:08:38;47.71;31.25;64.92;;
61249;Laerm;47119;49.130;9.218;2023-05-07T04:11:06;44.32;32.44;58.94;;
61249;Laerm;47119;49.130;9.218;2023-05-07T04:13:39;43.37;29.99;54.93;;
61249;Laerm;47119;49.130;9.218;2023-05-07T04:16:10;38.71;29.51;50.77;;
61249;Laerm;47119;49.130;9.218;2023-05-07T04:18:37;43.29;29.82;58.40;;
61249;Laerm;47119;49.130;9.218;2023-05-07T04:21:15;34.72;28.97;49.34;;
61249;Laerm;47119;49.130;9.218;2023-05-07T04:23:46;40.35;30.65;59.80;;
61249;Laerm;47119;49.130;9.218;2023-05-07T04:26:14;40.81;30.82;59.91;;
61249;Laerm;47119;49.130;9.218;2023-05-07T04:28:43;48.24;30.45;66.99;;
61249;Laerm;47119;49.130;9.218;2023-05-07T04:31:14;48.70;30.96;64.78;;
61249;Laerm;47119;49.130;9.218;2023-05-07T04:33:41;42.71;29.84;56.74;;
61249;Laerm;47119;49.130;9.218;2023-05-07T04:36:13;47.07;29.64;61.85;;
61249;Laerm;47119;49.130;9.218;2023-05-07T04:38:49;40.93;30.82;58.38;;
61249;Laerm;47119;49.130;9.218;2023-05-07T04:41:21;46.31;30.05;60.37;;
61249;Laerm;47119;49.130;9.218;2023-05-07T04:43:48;37.68;29.30;50.49;;
61249;Laerm;47119;49.130;9.218;2023-05-07T04:46:20;42.86;30.77;58.02;;
61249;Laerm;47119;49.130;9.218;2023-05-07T04:48:51;46.85;29.53;65.86;;
61249;Laerm;47119;49.130;9.218;2023-05-07T04:51:20;42.27;30.84;53.17;;
61249;Laerm;47119;49.130;9.218;2023-05-07T04:53:51;46.63;30.91;63.41;;
61249;Laerm;47119;49.130;9.218;2023-05-07T04:56:20;39.47;30.52;52.37;;
61249;Laerm;47119;49.130;9.218;2023-05-07T04:58:50;49.88;31.20;68.24;;
61249;Laerm;47119;49.130;9.218;2023-05-07T05:01:22;42.41;31.71;53.50;;
61249;Laerm;47119;49.130;9.218;2023-05-07T05:03:51;44.90;30.63;62.46;;
61249;Laerm;47119;49.130;9.218;2023-05-07T05:06:19;50.14;30.06;67.52;;
61249;Laerm;47119;49.130;9.218;2023-05-07T05:08:50;49.42;30.15;66.81;;
61249;Laerm;47119;49.130;9.218;2023-05-07T05:11:20;39.51;31.19;55.43;;
61249;Laerm;47119;49.130;9.218;2023-05-07T05:13:47;47.65;31.12;63.08;;
61249;Laerm;47119;49.130;9.218;2023-05-07T05:16:18;44.61;30.63;61.93;;
61249;Laerm;47119;49.130;9.218;2023-05-07T05:18:47;38.64;30.27;53.74;;
61249;Laerm;47119;49.130;9.218;2023-05-07T05:21:17;43.74;30.32;64.68;;
61249;Laerm;47119;49.130;9.218;2023-05-07T05:23:51;48.47;31.70;64.02;;
61249;Laerm;47119;49.130;9.218;2023-05-07T05:26:23;46.57;30.05;62.22;;
61249;Laerm;47119;49.130;9.218;2023-05-07T05:28:54;44.22;30.65;59.79;;
61249;Laerm;47119;49.130;9.218;2023-05-07T05:31:23;52.23;33.56;70.74;;
61249;Laerm;47119;49.130;9.218;2023-05-07T05:33:53;51.74;31.95;73.16;;
61249;Laerm;47119;49.130;9.218;2023-05-07T05:36:22;45.03;30.59;59.11;;
61249;Laerm;47119;49.130;9.218;2023-05-07T05:38:55;44.34;30.98;65.33;;
61249;Laerm;47119;49.130;9.218;2023-05-07T05:41:28;49.03;34.52;67.36;;
61249;Laerm;47119;49.130;9.218;2023-05-07T05:43:55;44.13;30.71;64.76;;
61249;Laerm;47119;49.130;9.218;2023-05-07T05:46:22;51.23;33.54;72.39;;
61249;Laerm;47119;49.130;9.218;2023-05-07T05:48:50;42.86;31.67;55.13;;
61249;Laerm;47119;49.130;9.218;2023-05-07T05:51:25;48.45;31.84;67.08;;
61249;Laerm;47119;49.130;9.218;2023-05-07T05:53:56;47.06;33.80;65.04;;
61249;Laerm;47119;49.130;9.218;2023-05-07T05:56:26;46.85;32.71;63.69;;
61249;Laerm;47119;49.130;9.218;2023-05-07T05:58:56;42.44;32.96;58.14;;
61249;Laerm;47119;49.130;9.218;2023-05-07T06:01:25;46.69;35.32;61.20;;
61249;Laerm;47119;49.130;9.218;2023-05-07T06:03:56;47.43;32.80;64.50;;
61249;Laerm;47119;49.130;9.218;2023-05-07T06:06:25;42.71;31.69;54.49;;
61249;Laerm;47119;49.130;9.218;2023-05-07T06:08:53;50.89;34.95;67.80;;
61249;Laerm;47119;49.130;9.218;2023-05-07T06:11:26;48.93;32.68;65.95;;
61249;Laerm;47119;49.130;9.218;2023-05-07T06:13:54;47.90;31.32;59.41;;
61249;Laerm;47119;49.130;9.218;2023-05-07T06:16:21;48.39;32.62;68.57;;
61249;Laerm;47119;49.130;9.218;2023-05-07T06:18:50;42.41;33.11;58.32;;
61249;Laerm;47119;49.130;9.218;2023-05-07T06:21:20;45.16;32.83;60.59;;
61249;Laerm;47119;49.130;9.218;2023-05-07T06:23:49;39.56;32.58;55.93;;
61249;Laerm;47119;49.130;9.218;2023-05-07T06:26:19;47.09;33.93;62.37;;
61249;Laerm;47119;49.130;9.218;2023-05-07T06:28:52;44.77;31.81;60.76;;
61249;Laerm;47119;49.130;9.218;2023-05-07T06:31:30;43.55;31.90;55.06;;
61249;Laerm;47119;49.130;9.218;2023-05-07T06:34:07;47.86;32.71;66.75;;
61249;Laerm;47119;49.130;9.218;2023-05-07T06:36:37;47.65;34.19;62.49;;
61249;Laerm;47119;49.130;9.218;2023-05-07T06:39:15;46.43;32.98;62.32;;
61249;Laerm;47119;49.130;9.218;2023-05-07T06:41:42;50.32;33.74;74.23;;
61249;Laerm;47119;49.130;9.218;2023-05-07T06:44:22;50.12;35.32;68.76;;
61249;Laerm;47119;49.130;9.218;2023-05-07T06:47:01;52.03;36.30;65.65;;
61249;Laerm;47119;49.130;9.218;2023-05-07T06:49:30;50.99;36.31;64.25;;
61249;Laerm;47119;49.130;9.218;2023-05-07T06:52:00;52.15;35.74;69.37;;
61249;Laerm;47119;49.130;9.218;2023-05-07T06:54:30;53.52;34.59;68.47;;
61249;Laerm;47119;49.130;9.218;2023-05-07T06:56:59;50.85;36.65;70.08;;
61249;Laerm;47119;49.130;9.218;2023-05-07T06:59:29;45.51;34.14;55.44;;
61249;Laerm;47119;49.130;9.218;2023-05-07T07:01:57;52.08;33.89;70.88;;
61249;Laerm;47119;49.130;9.218;2023-05-07T07:04:26;44.59;35.29;58.42;;
61249;Laerm;47119;49.130;9.218;2023-05-07T07:07:01;47.36;34.22;59.03;;
61249;Laerm;47119;49.130;9.218;2023-05-07T07:09:31;46.65;32.11;58.83;;
61249;Laerm;47119;49.130;9.218;2023-05-07T07:12:01;47.38;36.69;65.44;;
61249;Laerm;47119;49.130;9.218;2023-05-07T07:14:31;50.10;34.53;64.19;;
61249;Laerm;47119;49.130;9.218;2023-05-07T07:17:02;48.11;32.98;64.42;;
61249;Laerm;47119;49.130;9.218;2023-05-07T07:19:31;50.18;34.43;74.51;;
61249;Laerm;47119;49.130;9.218;2023-05-07T07:21:59;47.71;36.59;60.25;;
61249;Laerm;47119;49.130;9.218;2023-05-07T07:24:26;48.78;37.12;61.25;;
61249;Laerm;47119;49.130;9.218;2023-05-07T09:49:23;54.01;40.92;70.93;;
61249;Laerm;47119;49.130;9.218;2023-05-07T09:52:02;52.51;38.86;67.49;;
61249;Laerm;47119;49.130;9.218;2023-05-07T09:54:38;50.55;36.72;61.25;;
61249;Laerm;47119;49.130;9.218;2023-05-07T09:57:44;52.53;39.38;66.86;;
61249;Laerm;47119;49.130;9.218;2023-05-07T10:01:02;53.03;39.16;69.18;;
61249;Laerm;47119;49.130;9.218;2023-05-07T10:05:02;52.08;38.17;66.49;;
61249;Laerm;47119;49.130;9.218;2023-05-07T10:08:42;50.45;38.10;69.41;;
61249;Laerm;47119;49.130;9.218;2023-05-07T10:11:56;55.04;39.63;73.84;;
61249;Laerm;47119;49.130;9.218;2023-05-07T10:14:45;50.26;37.44;72.49;;
61249;Laerm;47119;49.130;9.218;2023-05-07T10:17:16;51.01;38.63;62.60;;
61249;Laerm;47119;49.130;9.218;2023-05-07T10:20:03;49.23;39.39;64.86;;
61249;Laerm;47119;49.130;9.218;2023-05-07T10:22:43;53.07;43.99;65.51;;
61249;Laerm;47119;49.130;9.218;2023-05-07T10:25:22;51.18;41.29;64.36;;
61249;Laerm;47119;49.130;9.218;2023-05-07T10:27:55;49.21;40.34;63.93;;
61249;Laerm;47119;49.130;9.218;2023-05-07T10:30:40;56.78;38.93;88.97;;
61249;Laerm;47119;49.130;9.218;2023-05-07T10:33:20;52.36;40.76;65.20;;
61249;Laerm;47119;49.130;9.218;2023-05-07T10:35:58;54.36;39.48;73.43;;
61249;Laerm;47119;49.130;9.218;2023-05-07T10:38:31;56.88;42.08;75.78;;
61249;Laerm;47119;49.130;9.218;2023-05-07T10:41:10;49.32;36.96;62.87;;
61249;Laerm;47119;49.130;9.218;2023-05-07T10:43:42;52.90;37.96;64.66;;
61249;Laerm;47119;49.130;9.218;2023-05-07T10:46:21;52.34;41.42;64.62;;
61249;Laerm;47119;49.130;9.218;2023-05-07T10:49:14;50.88;41.14;63.08;;
61249;Laerm;47119;49.130;9.218;2023-05-07T15:23:24;55.30;45.03;69.14;;
61249;Laerm;47119;49.130;9.218;2023-05-07T15:25:57;57.44;44.37;70.43;;
61249;Laerm;47119;49.130;9.218;2023-05-07T15:28:29;55.58;44.80;67.49;;
61249;Laerm;47119;49.130;9.218;2023-05-07T15:30:58;56.88;43.73;71.60;;
61249;Laerm;47119;49.130;9.218;2023-05-07T15:33:27;58.36;46.20;72.66;;
61249;Laerm;47119;49.130;9.218;2023-05-07T15:35:54;57.32;47.95;78.38;;
61249;Laerm;47119;49.130;9.218;2023-05-07T15:38:26;57.88;47.74;72.70;;
61249;Laerm;47119;49.130;9.218;2023-05-07T15:40:53;56.83;46.82;70.72;;
61249;Laerm;47119;49.130;9.218;2023-05-07T15:43:24;57.01;46.46;83.07;;
61249;Laerm;47119;49.130;9.218;2023-05-07T15:45:52;56.37;42.36;74.10;;
61249;Laerm;47119;49.130;9.218;2023-05-07T15:48:19;55.43;42.84;69.78;;
61249;Laerm;47119;49.130;9.218;2023-05-07T15:50:48;56.34;43.99;74.49;;
61249;Laerm;47119;49.130;9.218;2023-05-07T15:53:16;56.52;43.29;71.15;;
61249;Laerm;47119;49.130;9.218;2023-05-07T15:55:45;55.73;43.62;73.82;;
61249;Laerm;47119;49.130;9.218;2023-05-07T15:58:46;53.76;42.42;73.34;;
61249;Laerm;47119;49.130;9.218;2023-05-07T16:01:16;53.33;42.52;72.22;;
61249;Laerm;47119;49.130;9.218;2023-05-07T16:03:43;53.75;42.39;71.47;;
61249;Laerm;47119;49.130;9.218;2023-05-07T16:06:11;55.25;42.61;71.10;;
61249;Laerm;47119;49.130;9.218;2023-05-07T16:09:13;54.07;43.01;72.62;;
61249;Laerm;47119;49.130;9.218;2023-05-07T16:12:30;55.34;44.98;70.17;;
61249;Laerm;47119;49.130;9.218;2023-05-07T16:14:57;54.64;43.93;69.60;;
61249;Laerm;47119;49.130;9.218;2023-05-07T16:17:25;55.47;43.03;72.77;;
61249;Laerm;47119;49.130;9.218;2023-05-07T16:20:00;56.25;44.88;71.30;;
61249;Laerm;47119;49.130;9.218;2023-05-07T16:22:28;55.66;42.61;72.28;;
61249;Laerm;47119;49.130;9.218;2023-05-07T16:24:56;56.88;46.16;72.01;;
61249;Laerm;47119;49.130;9.218;2023-05-07T16:27:25;53.12;42.79;72.79;;
61249;Laerm;47119;49.130;9.218;2023-05-07T16:29:52;55.19;45.24;70.88;;
61249;Laerm;47119;49.130;9.218;2023-05-07T16:32:20;57.36;44.84;73.04;;
61249;Laerm;47119;49.130;9.218;2023-05-07T16:34:47;55.28;43.00;73.37;;
61249;Laerm;47119;49.130;9.218;2023-05-07T16:37:17;53.20;41.98;70.44;;
61249;Laerm;47119;49.130;9.218;2023-05-07T16:39:51;54.93;41.62;71.63;;
61249;Laerm;47119;49.130;9.218;2023-05-07T16:42:18;55.98;45.01;66.62;;
61249;Laerm;47119;49.130;9.218;2023-05-07T16:44:47;56.11;43.98;72.75;;
61249;Laerm;47119;49.130;9.218;2023-05-07T16:47:14;57.61;38.60;75.73;;
61249;Laerm;47119;49.130;9.218;2023-05-07T16:49:41;54.45;41.17;67.08;;
61249;Laerm;47119;49.130;9.218;2023-05-07T16:52:15;55.20;40.55;72.77;;
61249;Laerm;47119;49.130;9.218;2023-05-07T16:54:55;55.54;41.64;69.84;;
61249;Laerm;47119;49.130;9.218;2023-05-07T16:57:26;54.34;43.53;74.50;;
61249;Laerm;47119;49.130;9.218;2023-05-07T16:59:56;55.36;40.06;72.46;;
61249;Laerm;47119;49.130;9.218;2023-05-07T17:02:24;53.11;38.10;73.21;;
61249;Laerm;47119;49.130;9.218;2023-05-07T17:04:52;52.95;43.58;70.15;;
61249;Laerm;47119;49.130;9.218;2023-05-07T17:07:21;53.66;42.91;65.41;;
61249;Laerm;47119;49.130;9.218;2023-05-07T17:09:51;53.67;38.31;67.85;;
61249;Laerm;47119;49.130;9.218;2023-05-07T17:12:19;49.31;39.20;68.97;;
61249;Laerm;47119;49.130;9.218;2023-05-07T17:14:47;54.24;40.99;72.49;;
61249;Laerm;47119;49.130;9.218;2023-05-07T17:17:16;54.49;38.43;68.25;;
61249;Laerm;47119;49.130;9.218;2023-05-07T17:19:48;55.62;40.72;72.73;;
61249;Laerm;47119;49.130;9.218;2023-05-07T17:22:15;52.71;38.89;65.14;;
61249;Laerm;47119;49.130;9.218;2023-05-07T17:24:42;53.66;41.90;67.61;;
61249;Laerm;47119;49.130;9.218;2023-05-07T17:27:12;55.57;39.55;78.44;;
61249;Laerm;47119;49.130;9.218;2023-05-07T17:29:39;57.56;38.53;79.10;;
61249;Laerm;47119;49.130;9.218;2023-05-07T17:32:07;56.04;37.57;71.79;;
61249;Laerm;47119;49.130;9.218;2023-05-07T17:34:36;50.99;34.00;68.47;;
61249;Laerm;47119;49.130;9.218;2023-05-07T17:37:04;49.32;35.09;66.06;;
61249;Laerm;47119;49.130;9.218;2023-05-07T17:39:34;54.60;39.19;67.28;;
61249;Laerm;47119;49.130;9.218;2023-05-07T17:42:01;48.38;38.30;62.61;;
61249;Laerm;47119;49.130;9.218;2023-05-07T17:44:29;57.02;37.78;75.28;;
61249;Laerm;47119;49.130;9.218;2023-05-07T17:46:56;52.85;41.20;66.90;;
61249;Laerm;47119;49.130;9.218;2023-05-07T17:49:24;53.57;40.85;69.84;;
61249;Laerm;47119;49.130;9.218;2023-05-07T17:51:53;52.36;40.01;68.92;;
61249;Laerm;47119;49.130;9.218;2023-05-07T17:54:20;52.37;40.79;67.68;;
61249;Laerm;47119;49.130;9.218;2023-05-07T17:56:48;51.17;36.85;66.82;;
61249;Laerm;47119;49.130;9.218;2023-05-07T17:59:16;55.75;38.23;75.33;;
61249;Laerm;47119;49.130;9.218;2023-05-07T18:01:44;54.25;39.49;72.44;;
61249;Laerm;47119;49.130;9.218;2023-05-07T18:04:11;51.06;38.61;63.82;;
61249;Laerm;47119;49.130;9.218;2023-05-07T18:06:38;48.24;36.27;60.56;;
61249;Laerm;47119;49.130;9.218;2023-05-07T18:09:10;51.66;39.49;66.28;;
61249;Laerm;47119;49.130;9.218;2023-05-07T18:11:40;50.13;37.87;72.81;;
61249;Laerm;47119;49.130;9.218;2023-05-07T18:14:09;53.36;37.57;69.53;;
61249;Laerm;47119;49.130;9.218;2023-05-07T18:16:39;50.52;33.45;64.28;;
61249;Laerm;47119;49.130;9.218;2023-05-07T18:19:06;52.15;35.29;65.38;;
61249;Laerm;47119;49.130;9.218;2023-05-07T18:21:35;51.17;39.00;66.31;;
61249;Laerm;47119;49.130;9.218;2023-05-07T18:24:06;51.06;38.23;65.43;;
61249;Laerm;47119;49.130;9.218;2023-05-07T18:26:34;54.07;37.31;73.21;;
61249;Laerm;47119;49.130;9.218;2023-05-07T18:29:01;52.68;40.75;66.53;;
61249;Laerm;47119;49.130;9.218;2023-05-07T18:31:29;49.84;39.97;61.30;;
61249;Laerm;47119;49.130;9.218;2023-05-07T18:33:56;52.30;43.20;75.60;;
61249;Laerm;47119;49.130;9.218;2023-05-07T18:36:27;51.77;42.15;64.27;;
61249;Laerm;47119;49.130;9.218;2023-05-07T18:38:54;54.83;43.96;75.23;;
61249;Laerm;47119;49.130;9.218;2023-05-07T18:41:22;54.72;44.95;77.19;;
61249;Laerm;47119;49.130;9.218;2023-05-07T18:43:50;55.12;44.42;78.93;;
61249;Laerm;47119;49.130;9.218;2023-05-07T18:46:18;55.03;43.32;69.83;;
61249;Laerm;47119;49.130;9.218;2023-05-07T18:48:45;54.56;42.98;72.38;;
61249;Laerm;47119;49.130;9.218;2023-05-07T18:51:12;56.49;43.48;70.61;;
61249;Laerm;47119;49.130;9.218;2023-05-07T18:53:43;56.51;43.93;75.87;;
61249;Laerm;47119;49.130;9.218;2023-05-07T18:56:11;56.25;41.96;75.65;;
61249;Laerm;47119;49.130;9.218;2023-05-07T18:58:38;56.03;43.04;71.00;;
61249;Laerm;47119;49.130;9.218;2023-05-07T19:01:06;54.18;42.55;70.60;;
61249;Laerm;47119;49.130;9.218;2023-05-07T19:03:35;51.69;41.48;65.48;;
61249;Laerm;47119;49.130;9.218;2023-05-07T19:06:02;57.05;42.89;72.16;;
61249;Laerm;47119;49.130;9.218;2023-05-07T19:08:30;53.78;43.50;72.41;;
61249;Laerm;47119;49.130;9.218;2023-05-07T19:10:58;53.82;40.96;70.40;;
61249;Laerm;47119;49.130;9.218;2023-05-07T19:13:27;53.00;43.06;73.68;;
61249;Laerm;47119;49.130;9.218;2023-05-07T19:15:54;53.98;41.70;78.00;;
61249;Laerm;47119;49.130;9.218;2023-05-07T19:18:23;51.46;39.28;71.71;;
61249;Laerm;47119;49.130;9.218;2023-05-07T19:20:54;52.69;38.32;71.74;;
61249;Laerm;47119;49.130;9.218;2023-05-07T19:23:21;54.21;39.52;73.51;;
61249;Laerm;47119;49.130;9.218;2023-05-07T19:25:48;54.57;39.34;69.76;;
61249;Laerm;47119;49.130;9.218;2023-05-07T19:28:15;52.97;36.75;74.79;;
61249;Laerm;47119;49.130;9.218;2023-05-07T19:30:42;54.66;39.77;69.42;;
61249;Laerm;47119;49.130;9.218;2023-05-07T19:33:11;51.06;36.32;72.58;;
61249;Laerm;47119;49.130;9.218;2023-05-07T19:35:44;51.22;36.46;71.45;;
61249;Laerm;47119;49.130;9.218;2023-05-07T19:38:14;51.47;38.01;66.51;;
61249;Laerm;47119;49.130;9.218;2023-05-07T19:40:43;54.21;36.75;72.98;;
61249;Laerm;47119;49.130;9.218;2023-05-07T19:43:13;51.07;37.31;69.72;;
61249;Laerm;47119;49.130;9.218;2023-05-07T19:45:40;55.87;36.12;74.55;;
61249;Laerm;47119;49.130;9.218;2023-05-07T19:48:08;50.21;34.60;72.03;;
61249;Laerm;47119;49.130;9.218;2023-05-07T19:50:38;49.14;34.41;71.41;;
61249;Laerm;47119;49.130;9.218;2023-05-07T19:53:07;52.50;36.99;71.39;;
61249;Laerm;47119;49.130;9.218;2023-05-07T19:55:34;51.33;37.00;68.47;;
61249;Laerm;47119;49.130;9.218;2023-05-07T19:58:02;55.84;33.02;71.41;;
61249;Laerm;47119;49.130;9.218;2023-05-07T20:00:33;49.90;33.64;68.89;;
61249;Laerm;47119;49.130;9.218;2023-05-07T20:03:03;51.60;34.77;69.07;;
61249;Laerm;47119;49.130;9.218;2023-05-07T20:05:30;47.62;35.24;70.40;;
61249;Laerm;47119;49.130;9.218;2023-05-07T20:07:57;47.45;33.64;66.78;;
61249;Laerm;47119;49.130;9.218;2023-05-07T20:10:26;50.09;37.06;69.02;;
61249;Laerm;47119;49.130;9.218;2023-05-07T20:12:53;50.56;36.69;69.01;;
61249;Laerm;47119;49.130;9.218;2023-05-07T20:15:20;48.09;35.50;67.05;;
61249;Laerm;47119;49.130;9.218;2023-05-07T20:17:50;48.99;35.09;64.89;;
61249;Laerm;47119;49.130;9.218;2023-05-07T20:20:18;48.60;35.76;63.55;;
61249;Laerm;47119;49.130;9.218;2023-05-07T20:22:45;50.90;38.64;66.33;;
61249;Laerm;47119;49.130;9.218;2023-05-07T20:25:13;51.31;37.57;70.04;;
61249;Laerm;47119;49.130;9.218;2023-05-07T20:27:41;50.54;35.69;74.83;;
61249;Laerm;47119;49.130;9.218;2023-05-07T20:30:10;51.46;35.13;74.09;;
61249;Laerm;47119;49.130;9.218;2023-05-07T20:32:38;52.78;38.90;71.71;;
61249;Laerm;47119;49.130;9.218;2023-05-07T20:35:06;51.93;35.27;71.28;;
61249;Laerm;47119;49.130;9.218;2023-05-07T20:37:35;46.85;33.97;73.08;;
61249;Laerm;47119;49.130;9.218;2023-05-07T20:40:11;48.67;35.49;67.43;;
61249;Laerm;47119;49.130;9.218;2023-05-07T20:42:39;50.64;36.26;73.44;;
61249;Laerm;47119;49.130;9.218;2023-05-07T20:45:10;52.51;36.89;71.11;;
61249;Laerm;47119;49.130;9.218;2023-05-07T20:47:37;50.96;37.67;66.86;;
61249;Laerm;47119;49.130;9.218;2023-05-07T20:50:06;52.21;36.73;72.24;;
61249;Laerm;47119;49.130;9.218;2023-05-07T20:52:33;48.89;36.11;71.40;;
61249;Laerm;47119;49.130;9.218;2023-05-07T20:55:01;49.18;36.55;73.25;;
61249;Laerm;47119;49.130;9.218;2023-05-07T20:57:28;51.89;36.33;68.36;;
61249;Laerm;47119;49.130;9.218;2023-05-07T20:59:56;51.01;35.25;70.78;;